Página principal
METAR-TAF:

METAR-TAF

Aeroportos :

Oral, Cazaquistão

latitude: 51-15N, longitude: 051-17E, altura: 36 m

Observação actual do tempo

O boletim foi feito há 56 minutos, às 20:00 UTC
Vento 6 kt de oes-sudoeste
Temperatura 1°C
Humidade 93%
Pressão 1027 hPa
Visibilidade 10 km ou mais
Nuvens fragmentadasa uma altura de 1100 ft
Encobertoa uma altura de 2600 ft

METAR: UARR 182000Z 24003MPS 9999 BKN011 OVC026 01/M00 Q1027 R22/CLRD70 NOSIG RMK QFE767/1023

Hora: 01:56 (20:56 UTC)

Previsão

O boletim foi feito há 56 minutos, às 20:00 UTC
Previsão válida de 18 às 21 UTC a 19 às 06 UTC
Vento 4 kt com direcção variável
Visibilidade: 3100 m
Nuvens fragmentadasa uma altura de 1100 ft
Nuvens fragmentadasa uma altura de 2000 ft, Cumulonimbus.
neblina
Temporariamente
de 19 às 00 UTC a 19 às 06 UTC
Nuvens fragmentadasa uma altura de 600 ft
aguaceiros fracos de chuva

TAF: UARR 182000Z 1821/1906 VRB02MPS 3100 BR BKN011 BKN020CB TEMPO 1900/1906 -SHRA BKN006

Observações e previsões do tempo de mais de 4000 aeroportos (mensagens METAR e TAF).

As estações disponíveis são os pontos amarelos e vermelhos sobre o mapa.

Mova o rato sobre o mapa para ver o nome da estação.

Depois clique no ponto para visualizar as observações e previsões meteorológicas.

Para alterar o mapa : clique nos botões verdes com uma cruz preta para aumentar o zoom; no botão verde com uma pitada de zoom; ou nas setas verdes para mapas adjacentes.


METAR-TAF: